Parker Dam, California
Current Conditions -  °F | °C
As of 7:35 PM on Monday 22 Dec 2014 (Local Time) from KHII Reporting Station
Clear Clear  
Wind Chill: 66°   Ceiling: Unl
Heat Index: 66°   Visibility: 10mi
Dew Point: 39°   Wind: 7mph
Humidity: 37%   Direction: 40°NE
Pressure: 29.94"   Gusts: NA
Location:  34.29°N, 114.14°W
Report Text: KHII 230335Z AUTO 04006KT 10SM CLR 19/04 A2994 RMK AO2
Loading
Personal Weather Stations






























Interactive Weather Map New forecast layout! Learn more

10-Day Weather Forecast

Advertisements
Track Severe Weather on mobile